Time;durP1;ratioP1;P1;durP2;ratioP2;P2;SDS_P1;SDS_P2;PMS_P1;PMS_P2;Temp;Humidity;BMP_temperature;BMP_pressure;BME280_temperature;BME280_humidity;BME280_pressure;Samples;Min_cycle;Max_cycle;Signal;HPM_P1;HPM_P2
2021/11/01 00:00:00;;;;;;;7.20;5.55;;;;;;;8.37;100.00;94658.00;1030998;28;20106;-72
2021/11/01 00:00:30;;;;;;;7.13;5.53;;;;;;;8.35;100.00;94657.50;1028781;28;20109;-71
2021/11/01 00:01:03;;;;;;;6.70;5.28;;;;;;;8.45;100.00;94662.69;1033455;28;20759;-70
2021/11/01 00:01:34;;;;;;;5.75;4.85;;;;;;;8.48;100.00;94663.94;1038005;28;20033;-72
2021/11/01 00:02:04;;;;;;;7.85;4.93;;;;;;;8.44;100.00;94655.09;1034712;28;20797;-73
2021/11/01 00:02:35;;;;;;;6.55;4.97;;;;;;;8.48;100.00;94654.28;1029521;28;20031;-70
2021/11/01 00:03:06;;;;;;;7.53;5.47;;;;;;;8.46;100.00;94655.63;1029413;28;20587;-70
2021/11/01 00:03:36;;;;;;;8.43;5.65;;;;;;;8.50;100.00;94654.00;1030376;28;20022;-68
2021/11/01 00:04:07;;;;;;;6.72;5.22;;;;;;;8.52;100.00;94657.13;1030683;28;20485;-71
2021/11/01 00:04:37;;;;;;;6.93;5.00;;;;;;;8.54;100.00;94652.38;1030490;28;20073;-70
2021/11/01 00:05:11;;;;;;;6.38;4.78;;;;;;;8.55;100.00;94661.81;1035083;28;20048;-72
2021/11/01 00:05:42;;;;;;;8.80;5.78;;;;;;;8.49;100.00;94652.44;1033910;28;20646;-71
2021/11/01 00:06:12;;;;;;;6.88;4.95;;;;;;;8.62;100.00;94664.88;1034851;28;20428;-71
2021/11/01 00:06:43;;;;;;;6.80;5.07;;;;;;;8.61;100.00;94662.53;1025387;28;20337;-70
2021/11/01 00:07:14;;;;;;;4.90;4.40;;;;;;;8.59;100.00;94664.66;1025309;28;20039;-70
2021/11/01 00:07:44;;;;;;;5.68;4.45;;;;;;;8.52;100.00;94651.91;1026243;28;20193;-68
2021/11/01 00:08:15;;;;;;;5.88;4.88;;;;;;;8.62;100.00;94659.66;1026566;28;20026;-70
2021/11/01 00:08:45;;;;;;;5.63;4.47;;;;;;;8.59;100.00;94660.19;1030441;28;20026;-70
2021/11/01 00:09:16;;;;;;;6.75;4.80;;;;;;;8.58;100.00;94663.84;1028072;28;20050;-68
2021/11/01 00:09:46;;;;;;;6.25;4.65;;;;;;;8.60;100.00;94659.13;1025837;28;20034;-72
2021/11/01 00:10:17;;;;;;;5.63;4.93;;;;;;;8.55;100.00;94651.34;1029862;28;20590;-71
2021/11/01 00:10:47;;;;;;;5.07;4.57;;;;;;;8.53;100.00;94661.28;1034266;28;20022;-72
2021/11/01 00:11:18;;;;;;;6.03;5.03;;;;;;;8.52;100.00;94662.34;1027853;28;20026;-69
2021/11/01 00:11:49;;;;;;;6.30;5.30;;;;;;;8.40;100.00;94646.25;1029877;28;20026;-69
2021/11/01 00:12:19;;;;;;;5.78;4.82;;;;;;;8.49;100.00;94663.69;1026701;28;20569;-71
2021/11/01 00:12:50;;;;;;;6.07;5.05;;;;;;;8.47;100.00;94667.63;1030189;28;20030;-70
2021/11/01 00:13:20;;;;;;;6.18;4.93;;;;;;;8.47;100.00;94662.41;1027416;28;20026;-71
2021/11/01 00:13:50;;;;;;;6.45;5.13;;;;;;;8.49;100.00;94662.91;1030397;28;20030;-70
2021/11/01 00:14:22;;;;;;;5.10;4.53;;;;;;;8.54;100.00;94659.47;1034637;28;20022;-71
2021/11/01 00:14:53;;;;;;;6.10;4.80;;;;;;;8.52;100.00;94662.34;1034493;28;20121;-70
2021/11/01 00:15:23;;;;;;;5.47;4.72;;;;;;;8.53;100.00;94660.53;1031794;28;20663;-72
2021/11/01 00:15:54;;;;;;;7.97;5.07;;;;;;;8.53;100.00;94661.28;1038390;28;20022;-71
2021/11/01 00:16:27;;;;;;;5.60;4.90;;;;;;;8.53;100.00;94660.53;1030731;28;20025;-69
2021/11/01 00:16:58;;;;;;;6.78;4.85;;;;;;;8.52;100.00;94653.72;1036921;28;20017;-70
2021/11/01 00:17:29;;;;;;;5.78;4.82;;;;;;;8.44;100.00;94655.09;1035977;28;20279;-70
2021/11/01 00:17:59;;;;;;;7.40;5.22;;;;;;;8.47;100.00;94657.16;1026807;28;20273;-71
2021/11/01 00:18:30;;;;;;;6.00;4.63;;;;;;;8.47;100.00;94660.56;1031098;28;20029;-71
2021/11/01 00:19:00;;;;;;;6.13;4.80;;;;;;;8.50;100.00;94656.63;1034671;28;20021;-71
2021/11/01 00:19:31;;;;;;;6.30;4.90;;;;;;;8.49;100.00;94655.06;1029173;28;20551;-70
2021/11/01 00:20:01;;;;;;;6.05;5.07;;;;;;;8.46;100.00;94658.22;1037551;28;20417;-71
2021/11/01 00:20:32;;;;;;;4.90;4.30;;;;;;;8.46;100.00;94650.38;1033838;28;20030;-70
2021/11/01 00:21:03;;;;;;;5.90;4.70;;;;;;;8.42;100.00;94657.22;1030806;28;20473;-71
2021/11/01 00:21:33;;;;;;;7.35;5.40;;;;;;;8.39;100.00;94657.78;1028288;28;20041;-69
2021/11/01 00:22:04;;;;;;;7.35;4.82;;;;;;;8.39;100.00;94649.94;1029440;28;20780;-71
2021/11/01 00:22:35;;;;;;;6.63;5.03;;;;;;;8.35;100.00;94644.44;1030629;28;20393;-70
2021/11/01 00:23:05;;;;;;;7.18;5.00;;;;;;;8.29;100.00;94644.75;1030992;28;20038;-72
2021/11/01 00:23:36;;;;;;;6.43;4.82;;;;;;;8.25;100.00;94645.31;1037564;28;20516;-71
2021/11/01 00:24:06;;;;;;;7.82;4.75;;;;;;;8.32;100.00;94649.44;1036488;28;20108;-71
2021/11/01 00:24:37;;;;;;;5.50;4.82;;;;;;;8.31;100.00;94653.88;1042792;28;20025;-69
2021/11/01 00:25:08;;;;;;;6.65;5.38;;;;;;;8.13;100.00;94636.25;1046782;28;20024;-69
2021/11/01 00:25:38;;;;;;;7.47;5.32;;;;;;;8.30;100.00;94659.38;1029472;28;20196;-70
2021/11/01 00:26:09;;;;;;;6.32;5.45;;;;;;;8.27;100.00;94656.25;1028181;28;20277;-73
2021/11/01 00:26:39;;;;;;;7.15;5.28;;;;;;;8.24;100.00;94654.19;1026160;28;20083;-71
2021/11/01 00:27:10;;;;;;;8.27;5.38;;;;;;;8.20;100.00;94658.41;1028893;28;20023;-68
2021/11/01 00:27:40;;;;;;;8.45;5.28;;;;;;;8.18;100.00;94660.53;1033795;28;20047;-69
2021/11/01 00:28:11;;;;;;;6.20;5.18;;;;;;;8.10;100.00;94649.88;1036957;28;20037;-70
2021/11/01 00:28:44;;;;;;;6.20;5.40;;;;;;;8.13;100.00;94655.31;1034989;28;20030;-70
2021/11/01 00:29:14;;;;;;;7.32;5.35;;;;;;;8.03;100.00;94648.34;1039250;28;20789;-71
2021/11/01 00:29:44;;;;;;;5.90;5.03;;;;;;;8.08;100.00;94663.22;1038644;28;20268;-69
2021/11/01 00:30:15;;;;;;;11.02;5.97;;;;;;;8.02;100.00;94661.69;1028481;28;20030;-72
2021/11/01 00:30:45;;;;;;;7.78;5.53;;;;;;;7.93;100.00;94648.41;1025640;28;20148;-71
2021/11/01 00:31:16;;;;;;;9.18;5.70;;;;;;;7.96;100.00;94657.56;1032795;28;20014;-71
2021/11/01 00:31:46;;;;;;;7.32;5.80;;;;;;;7.87;100.00;94643.50;1034494;28;20017;-70
2021/11/01 00:32:17;;;;;;;6.68;5.70;;;;;;;7.93;100.00;94663.31;1029221;28;20033;-69
2021/11/01 00:32:47;;;;;;;7.53;5.80;;;;;;;7.91;100.00;94657.56;1032908;28;20041;-73
2021/11/01 00:33:18;;;;;;;6.55;5.55;;;;;;;7.92;100.00;94659.16;1034439;28;20038;-69
2021/11/01 00:33:48;;;;;;;7.47;5.97;;;;;;;7.85;100.00;94653.47;1034954;28;20025;-71
2021/11/01 00:34:20;;;;;;;7.25;6.00;;;;;;;7.90;100.00;94658.63;1040272;28;20025;-70
2021/11/01 00:34:50;;;;;;;8.10;6.05;;;;;;;7.87;100.00;94654.72;1033273;28;20021;-69
2021/11/01 00:35:21;;;;;;;7.70;6.18;;;;;;;7.96;100.00;94655.72;1038073;28;20260;-70
2021/11/01 00:35:51;;;;;;;6.55;5.63;;;;;;;7.89;100.00;94647.41;1034448;28;20030;-72
2021/11/01 00:36:22;;;;;;;7.65;5.60;;;;;;;7.95;100.00;94650.78;1027204;28;20105;-69
2021/11/01 00:36:53;;;;;;;8.15;6.00;;;;;;;7.94;100.00;94643.97;1030206;28;20030;-71
2021/11/01 00:37:24;;;;;;;6.55;5.57;;;;;;;8.05;100.00;94650.69;1030231;28;20030;-70
2021/11/01 00:37:54;;;;;;;6.10;5.18;;;;;;;8.05;100.00;94653.31;1029978;28;20401;-71
2021/11/01 00:38:25;;;;;;;6.28;5.43;;;;;;;8.06;100.00;94657.47;1024194;28;20042;-71
2021/11/01 00:38:56;;;;;;;8.43;5.35;;;;;;;8.00;100.00;94645.50;1033950;28;20083;-71
2021/11/01 00:39:26;;;;;;;6.93;5.40;;;;;;;8.05;100.00;94650.69;1038737;28;20037;-69
2021/11/01 00:39:59;;;;;;;7.25;5.68;;;;;;;8.04;100.00;94652.50;1034406;28;20026;-70
2021/11/01 00:40:29;;;;;;;6.43;5.40;;;;;;;7.97;100.00;94644.22;1032863;28;20440;-69
2021/11/01 00:41:00;;;;;;;6.82;5.53;;;;;;;8.10;100.00;94657.72;1030819;28;20296;-69
2021/11/01 00:41:31;;;;;;;8.23;5.32;;;;;;;8.10;100.00;94655.88;1034861;28;20033;-71
2021/11/01 00:42:02;;;;;;;8.73;5.65;;;;;;;8.11;100.00;94659.25;1030428;28;20268;-70
2021/11/01 00:42:32;;;;;;;6.57;5.28;;;;;;;8.04;100.00;94649.13;1027959;28;20042;-70
2021/11/01 00:43:03;;;;;;;6.20;4.78;;;;;;;8.10;100.00;94648.03;1034568;28;20664;-69
2021/11/01 00:43:34;;;;;;;6.60;5.13;;;;;;;8.14;100.00;94650.88;1030613;28;20034;-72
2021/11/01 00:44:04;;;;;;;7.68;5.20;;;;;;;8.10;100.00;94648.03;1035341;28;20029;-70
2021/11/01 00:44:36;;;;;;;5.95;5.05;;;;;;;8.13;100.00;94659.78;1039248;28;20045;-69
2021/11/01 00:45:07;;;;;;;5.90;5.13;;;;;;;8.15;100.00;94655.03;1035769;28;20034;-72
2021/11/01 00:45:37;;;;;;;8.80;5.22;;;;;;;8.16;100.00;94656.63;1038779;28;20272;-70
2021/11/01 00:46:10;;;;;;;6.80;5.13;;;;;;;8.16;100.00;94651.41;1036142;28;20033;-69
2021/11/01 00:46:41;;;;;;;6.00;4.55;;;;;;;8.14;100.00;94649.03;1035560;28;20930;-70
2021/11/01 00:47:14;;;;;;;5.68;4.72;;;;;;;8.06;100.00;94644.41;1035651;28;20586;-69
2021/11/01 00:47:45;;;;;;;7.50;5.07;;;;;;;8.17;100.00;94652.94;1039111;28;20025;-70
2021/11/01 00:48:15;;;;;;;5.30;4.50;;;;;;;8.15;100.00;94645.41;1033891;28;20277;-70
2021/11/01 00:48:46;;;;;;;5.70;4.75;;;;;;;8.15;100.00;94648.00;1039523;28;20037;-70
2021/11/01 00:49:16;;;;;;;5.18;4.57;;;;;;;8.16;100.00;94646.94;1039538;28;20029;-72
2021/11/01 00:49:47;;;;;;;6.90;4.75;;;;;;;8.19;100.00;94650.84;1035180;28;20022;-69
2021/11/01 00:50:17;;;;;;;6.40;4.55;;;;;;;8.21;100.00;94648.72;1031542;28;20041;-71
2021/11/01 00:50:48;;;;;;;5.05;4.30;;;;;;;8.23;100.00;94650.03;1039563;28;20017;-70
2021/11/01 00:51:18;;;;;;;7.53;4.63;;;;;;;8.23;100.00;94650.03;1043442;28;20032;-72
2021/11/01 00:51:49;;;;;;;8.43;4.75;;;;;;;8.24;100.00;94648.94;1037145;28;20033;-70
2021/11/01 00:52:25;;;;;;;4.80;4.30;;;;;;;8.25;100.00;94645.31;1033803;28;20030;-69
2021/11/01 00:52:56;;;;;;;5.75;4.20;;;;;;;8.24;100.00;94645.56;1035820;28;20038;-68
2021/11/01 00:53:31;;;;;;;6.40;4.20;;;;;;;8.16;100.00;94639.09;1030886;28;20654;-70
2021/11/01 00:54:02;;;;;;;5.57;4.25;;;;;;;8.20;100.00;94642.72;1026468;28;20026;-72
2021/11/01 00:54:34;;;;;;;5.10;4.45;;;;;;;8.11;100.00;94635.75;1027042;28;20272;-70
2021/11/01 00:55:08;;;;;;;5.35;4.50;;;;;;;8.21;100.00;94640.88;1032059;28;20038;-69
2021/11/01 00:55:49;;;;;;;6.30;4.45;;;;;;;8.17;100.00;94642.50;1037952;28;20721;-71
2021/11/01 00:56:20;;;;;;;5.45;4.30;;;;;;;8.16;100.00;94646.94;1045688;28;20303;-70
2021/11/01 00:56:50;;;;;;;5.20;4.20;;;;;;;8.20;100.00;94641.94;1047398;28;20282;-72
2021/11/01 00:57:21;;;;;;;5.32;4.28;;;;;;;8.17;100.00;94639.88;1039854;28;20116;-69
2021/11/01 00:57:51;;;;;;;7.35;4.40;;;;;;;8.06;100.00;94631.34;1040402;28;20025;-70
2021/11/01 00:58:22;;;;;;;5.78;4.15;;;;;;;8.14;100.00;94646.44;1036871;28;20030;-70
2021/11/01 00:58:53;;;;;;;6.80;3.97;;;;;;;8.18;100.00;94644.84;1031769;28;20026;-69
2021/11/01 00:59:23;;;;;;;6.25;4.20;;;;;;;8.13;100.00;94637.03;1030925;28;20557;-69
2021/11/01 00:59:54;;;;;;;6.43;4.43;;;;;;;8.13;100.00;94644.88;1031196;28;20545;-72
2021/11/01 01:00:26;;;;;;;7.03;4.85;;;;;;;8.03;100.00;94632.66;1030799;28;20041;-69
2021/11/01 01:00:57;;;;;;;5.13;3.92;;;;;;;8.17;100.00;94642.50;1033297;28;20030;-69
2021/11/01 01:01:27;;;;;;;4.63;3.78;;;;;;;8.20;100.00;94636.72;1027787;28;20270;-69
2021/11/01 01:01:58;;;;;;;5.65;3.92;;;;;;;8.23;100.00;94636.94;1035586;28;20085;-70
2021/11/01 01:02:32;;;;;;;6.28;4.07;;;;;;;8.25;100.00;94634.09;1031338;28;20061;-72
2021/11/01 01:03:02;;;;;;;4.60;4.20;;;;;;;8.20;100.00;94627.03;1031796;28;20449;-70
2021/11/01 01:03:33;;;;;;;5.05;3.92;;;;;;;8.27;100.00;94632.72;1035265;28;20269;-69
2021/11/01 01:04:03;;;;;;;4.03;3.63;;;;;;;8.28;100.00;94633.50;1035518;28;20033;-70
2021/11/01 01:04:34;;;;;;;4.22;3.53;;;;;;;8.22;100.00;94630.19;1033807;28;20473;-71
2021/11/01 01:05:05;;;;;;;4.47;3.75;;;;;;;8.19;100.00;94628.09;1034653;28;20022;-70
2021/11/01 01:05:35;;;;;;;6.13;3.97;;;;;;;8.31;100.00;94634.78;1034842;28;20068;-70
2021/11/01 01:06:06;;;;;;;5.25;4.10;;;;;;;8.30;100.00;94636.63;1035288;28;20368;-70
2021/11/01 01:06:37;;;;;;;5.40;3.97;;;;;;;8.30;100.00;94631.41;1032198;28;20033;-71
2021/11/01 01:07:07;;;;;;;5.47;4.32;;;;;;;8.35;100.00;94633.19;1032813;28;20045;-72
2021/11/01 01:07:37;;;;;;;4.85;3.60;;;;;;;8.34;100.00;94634.25;1043316;28;20020;-70
2021/11/01 01:08:08;;;;;;;4.78;3.83;;;;;;;8.33;100.00;94641.31;1045194;28;20032;-72
2021/11/01 01:08:39;;;;;;;5.10;3.92;;;;;;;8.30;100.00;94635.84;1047290;28;20028;-72
2021/11/01 01:09:10;;;;;;;4.85;3.83;;;;;;;8.32;100.00;94634.53;1035158;28;20099;-69
2021/11/01 01:09:40;;;;;;;4.85;3.80;;;;;;;8.34;100.00;94636.88;1034459;28;20041;-69
2021/11/01 01:10:10;;;;;;;5.03;3.90;;;;;;;8.36;100.00;94632.16;1034942;28;20030;-70
2021/11/01 01:10:41;;;;;;;8.30;4.05;;;;;;;8.33;100.00;94627.47;1035361;28;20038;-71
2021/11/01 01:11:12;;;;;;;5.18;3.67;;;;;;;8.31;100.00;94638.19;1039245;28;20676;-70
2021/11/01 01:11:43;;;;;;;4.68;3.85;;;;;;;8.34;100.00;94632.41;1038985;28;20025;-70
2021/11/01 01:12:14;;;;;;;6.18;4.10;;;;;;;8.29;100.00;94626.47;1039266;28;20631;-71
2021/11/01 01:12:45;;;;;;;5.55;4.05;;;;;;;8.33;100.00;94630.09;1035858;28;20280;-72
2021/11/01 01:13:18;;;;;;;5.10;3.88;;;;;;;8.30;100.00;94614.94;1039171;28;20024;-70
2021/11/01 01:13:51;;;;;;;7.00;4.70;;;;;;;8.27;100.00;94617.06;1031058;28;20493;-72
2021/11/01 01:14:26;;;;;;;5.30;3.47;;;;;;;8.36;100.00;94634.75;1026952;28;20258;-72
2021/11/01 01:15:01;;;;;;;4.30;3.63;;;;;;;8.29;100.00;94618.63;1030877;28;20320;-72
2021/11/01 01:15:39;;;;;;;4.43;3.50;;;;;;;8.35;100.00;94627.97;1030415;28;20284;-69
2021/11/01 01:16:44;;;;;;;5.95;4.40;;;;;;;8.37;100.00;94633.69;1026587;28;20879;-69
2021/11/01 01:17:15;;;;;;;6.55;4.20;;;;;;;8.34;100.00;94636.88;1028745;28;20305;-73
2021/11/01 01:17:46;;;;;;;5.05;4.03;;;;;;;8.24;100.00;94622.81;1029490;28;20749;-70
2021/11/01 01:18:24;;;;;;;6.57;4.15;;;;;;;8.30;100.00;94628.03;1031223;28;20101;-71
2021/11/01 01:18:59;;;;;;;4.78;4.13;;;;;;;8.21;100.00;94619.97;1032392;28;20030;-68
2021/11/01 01:19:42;;;;;;;5.32;4.20;;;;;;;8.22;100.00;94624.94;1037144;28;20447;-71
2021/11/01 01:20:17;;;;;;;4.57;3.83;;;;;;;8.18;100.00;94618.72;1034040;28;20276;-70
2021/11/01 01:20:48;;;;;;;4.22;3.50;;;;;;;8.19;100.00;94625.50;1031203;28;20294;-70
2021/11/01 01:22:25;;;;;;;5.20;4.32;;;;;;;8.16;100.00;94623.44;1033743;28;20495;-70
2021/11/01 01:22:55;;;;;;;5.07;3.80;;;;;;;8.06;100.00;94614.91;1039430;28;20345;-72
2021/11/01 01:23:26;;;;;;;5.55;4.20;;;;;;;8.06;100.00;94618.28;1039596;28;20895;-72
2021/11/01 01:23:57;;;;;;;6.20;4.10;;;;;;;7.93;100.00;94606.63;1039073;28;20129;-72
2021/11/01 01:24:27;;;;;;;7.10;4.25;;;;;;;7.98;100.00;94611.03;1030861;28;20383;-71
2021/11/01 01:25:18;;;;;;;4.70;3.60;;;;;;;8.03;100.00;94621.44;1031114;28;20089;-69
2021/11/01 01:25:54;;;;;;;4.93;3.95;;;;;;;8.04;100.00;94613.31;1030899;28;20030;-69
2021/11/01 01:26:25;;;;;;;6.88;3.72;;;;;;;8.03;100.00;94613.59;1034951;28;20280;-71
2021/11/01 01:26:56;;;;;;;4.28;3.47;;;;;;;8.05;100.00;94616.75;1031742;28;20303;-70
2021/11/01 01:27:26;;;;;;;4.43;3.70;;;;;;;8.11;100.00;94622.69;1039604;28;20029;-71
2021/11/01 01:27:57;;;;;;;4.25;3.72;;;;;;;8.00;100.00;94601.88;1033986;28;20157;-70
2021/11/01 01:28:27;;;;;;;4.78;4.03;;;;;;;8.03;100.00;94609.16;1032407;28;20026;-70
2021/11/01 01:28:58;;;;;;;4.13;3.72;;;;;;;8.03;100.00;94616.22;1031265;28;20094;-70
2021/11/01 01:29:28;;;;;;;5.35;3.92;;;;;;;8.03;100.00;94611.00;1043161;28;20075;-72
2021/11/01 01:29:59;;;;;;;5.90;4.00;;;;;;;7.90;100.00;94590.72;1035221;28;20138;-72
2021/11/01 01:30:29;;;;;;;4.40;3.97;;;;;;;8.00;100.00;94612.31;1039477;28;20037;-72
2021/11/01 01:31:01;;;;;;;4.00;3.60;;;;;;;8.02;100.00;94609.44;1039304;28;20026;-69
2021/11/01 01:31:32;;;;;;;5.07;3.90;;;;;;;8.05;100.00;94619.34;1036797;28;20025;-68
2021/11/01 01:32:02;;;;;;;5.28;3.63;;;;;;;7.98;100.00;94608.41;1036158;28;20277;-69
2021/11/01 01:32:33;;;;;;;4.30;3.90;;;;;;;8.01;100.00;94618.31;1034307;28;20021;-71
2021/11/01 01:33:07;;;;;;;4.05;3.65;;;;;;;8.01;100.00;94616.50;1034443;28;20045;-70
2021/11/01 01:33:38;;;;;;;4.75;3.78;;;;;;;7.99;100.00;94607.38;1035956;28;20029;-71
2021/11/01 01:34:08;;;;;;;5.60;3.70;;;;;;;8.05;100.00;94614.13;1041300;28;20972;-70
2021/11/01 01:34:38;;;;;;;4.57;3.80;;;;;;;8.05;100.00;94614.13;1039472;28;20029;-70
2021/11/01 01:35:09;;;;;;;5.28;3.60;;;;;;;8.09;100.00;94617.75;1034589;28;20381;-69
2021/11/01 01:35:40;;;;;;;4.72;3.70;;;;;;;8.12;100.00;94614.59;1035335;28;20602;-69
2021/11/01 01:36:11;;;;;;;5.07;3.75;;;;;;;8.21;100.00;94623.38;1039709;28;20112;-70
2021/11/01 01:36:41;;;;;;;4.05;3.65;;;;;;;8.18;100.00;94615.31;1043280;28;20025;-71
2021/11/01 01:37:12;;;;;;;4.15;3.70;;;;;;;8.17;100.00;94616.38;1034881;28;20116;-70
2021/11/01 01:37:43;;;;;;;3.38;3.00;;;;;;;8.20;100.00;94616.59;1035450;28;20116;-70
2021/11/01 01:38:14;;;;;;;4.55;3.42;;;;;;;8.16;100.00;94615.59;1035594;28;20400;-70
2021/11/01 01:38:46;;;;;;;3.97;3.58;;;;;;;8.14;100.00;94614.28;1031642;28;20250;-71
2021/11/01 01:39:16;;;;;;;4.97;3.50;;;;;;;8.17;100.00;94622.38;1031615;28;20046;-72
2021/11/01 01:39:47;;;;;;;5.15;3.67;;;;;;;8.16;100.00;94618.19;1027702;28;20262;-69
2021/11/01 01:40:17;;;;;;;5.88;3.67;;;;;;;8.21;100.00;94622.59;1028769;28;20062;-69
2021/11/01 01:40:48;;;;;;;4.50;3.70;;;;;;;8.20;100.00;94621.81;1031057;28;20034;-71
2021/11/01 01:41:28;;;;;;;4.50;3.65;;;;;;;8.23;100.00;94620.50;1036434;28;20071;-70
2021/11/01 01:41:58;;;;;;;5.97;3.70;;;;;;;8.22;100.00;94618.94;1030438;28;20038;-70
2021/11/01 01:42:29;;;;;;;3.90;3.50;;;;;;;8.21;100.00;94615.53;1035297;28;20097;-69
2021/11/01 01:42:59;;;;;;;3.92;3.53;;;;;;;8.19;100.00;94620.28;1035864;28;20128;-71
2021/11/01 01:43:30;;;;;;;4.95;3.65;;;;;;;8.13;100.00;94604.91;1040198;28;20025;-72
2021/11/01 01:44:00;;;;;;;5.35;3.72;;;;;;;8.09;100.00;94603.91;1039430;28;20022;-71
2021/11/01 01:44:32;;;;;;;6.88;3.80;;;;;;;8.17;100.00;94617.13;1039334;28;20022;-70
2021/11/01 01:45:03;;;;;;;6.78;4.00;;;;;;;8.05;100.00;94606.28;1034864;28;20559;-69
2021/11/01 01:45:34;;;;;;;3.85;3.30;;;;;;;8.09;100.00;94614.34;1030197;28;20313;-72
2021/11/01 01:46:04;;;;;;;5.15;3.83;;;;;;;8.06;100.00;94623.50;1031201;28;20270;-71
2021/11/01 01:46:35;;;;;;;4.97;3.90;;;;;;;8.06;100.00;94615.69;1030263;28;20019;-71
2021/11/01 01:47:10;;;;;;;6.13;4.10;;;;;;;8.03;100.00;94624.06;1036563;28;20621;-69
2021/11/01 01:47:41;;;;;;;7.93;3.70;;;;;;;7.98;100.00;94618.84;1037984;28;20319;-69
2021/11/01 01:48:13;;;;;;;5.25;3.80;;;;;;;7.92;100.00;94610.31;1030938;28;20348;-71
2021/11/01 01:48:44;;;;;;;5.00;3.97;;;;;;;7.89;100.00;94610.06;1032821;28;20683;-69
2021/11/01 01:49:14;;;;;;;4.75;3.88;;;;;;;7.90;100.00;94611.63;1036106;28;20261;-69
2021/11/01 01:49:44;;;;;;;4.82;3.50;;;;;;;7.92;100.00;94620.75;1034809;28;20092;-70
2021/11/01 01:50:15;;;;;;;8.85;4.03;;;;;;;7.85;100.00;94611.69;1034426;28;20091;-73
2021/11/01 01:50:46;;;;;;;4.35;3.90;;;;;;;7.87;100.00;94625.22;1039072;28;20014;-70
2021/11/01 01:51:16;;;;;;;4.40;3.50;;;;;;;7.82;100.00;94615.59;1030875;28;20023;-71
2021/11/01 01:51:47;;;;;;;5.75;4.18;;;;;;;7.80;100.00;94618.47;1028000;28;20019;-71
2021/11/01 01:52:19;;;;;;;4.57;3.90;;;;;;;7.71;100.00;94609.69;1039053;28;20158;-71
2021/11/01 01:52:50;;;;;;;4.22;3.83;;;;;;;7.73;100.00;94618.00;1039161;28;20500;-72
2021/11/01 01:53:23;;;;;;;6.72;4.15;;;;;;;7.64;100.00;94614.41;1030603;28;20266;-69
2021/11/01 01:53:53;;;;;;;4.82;3.78;;;;;;;7.70;100.00;94617.78;1026912;28;20446;-70
2021/11/01 01:54:24;;;;;;;4.35;3.95;;;;;;;7.71;100.00;94617.50;1030746;28;20375;-70
2021/11/01 01:54:54;;;;;;;4.70;3.92;;;;;;;7.71;100.00;94619.31;1027026;28;20030;-70
2021/11/01 01:55:24;;;;;;;5.95;3.55;;;;;;;7.72;100.00;94626.13;1029378;28;20329;-72
2021/11/01 01:55:55;;;;;;;5.40;4.03;;;;;;;7.58;100.00;94594.63;1034937;28;20022;-70
2021/11/01 01:56:26;;;;;;;4.93;3.95;;;;;;;7.74;100.00;94614.34;1030778;28;20564;-70
2021/11/01 01:56:56;;;;;;;5.03;4.20;;;;;;;7.76;100.00;94614.06;1031047;28;20023;-69
2021/11/01 01:57:27;;;;;;;5.97;4.40;;;;;;;7.74;100.00;94616.94;1029589;28;20034;-71
2021/11/01 01:57:57;;;;;;;4.43;3.83;;;;;;;7.77;100.00;94608.56;1029352;28;20034;-72
2021/11/01 01:58:31;;;;;;;4.82;4.20;;;;;;;7.78;100.00;94615.38;1034783;28;20030;-70
2021/11/01 01:59:07;;;;;;;5.38;3.80;;;;;;;7.77;100.00;94613.00;1032478;28;20031;-69
2021/11/01 01:59:37;;;;;;;4.47;4.03;;;;;;;7.72;100.00;94602.63;1035074;28;20300;-69
2021/11/01 02:00:29;;;;;;;5.40;4.35;;;;;;;7.71;100.00;94601.84;1036270;28;20308;-70
2021/11/01 02:01:33;;;;;;;4.90;4.20;;;;;;;7.77;100.00;94608.56;1033171;28;20377;-71
2021/11/01 02:02:04;;;;;;;4.18;3.60;;;;;;;7.76;100.00;94601.78;1034337;28;20335;-68
2021/11/01 02:02:34;;;;;;;5.43;3.90;;;;;;;7.82;100.00;94607.00;1034834;28;20026;-70
2021/11/01 02:03:05;;;;;;;4.43;3.90;;;;;;;7.78;100.00;94604.94;1030412;28;20049;-69
2021/11/01 02:03:36;;;;;;;5.60;4.18;;;;;;;7.72;100.00;94595.56;1031045;28;20034;-70
2021/11/01 02:04:07;;;;;;;6.05;4.40;;;;;;;7.79;100.00;94605.69;1030946;28;20489;-69
2021/11/01 02:04:37;;;;;;;5.75;4.25;;;;;;;7.78;100.00;94604.16;1030912;28;20265;-69
2021/11/01 02:05:08;;;;;;;4.47;3.80;;;;;;;7.79;100.00;94613.53;1031657;28;20624;-70
2021/11/01 02:06:07;;;;;;;4.95;3.90;;;;;;;7.79;100.00;94606.47;1031214;28;20480;-69
2021/11/01 02:06:45;;;;;;;5.20;4.03;;;;;;;7.83;100.00;94611.16;1031301;28;20029;-71
2021/11/01 02:07:27;;;;;;;5.43;3.97;;;;;;;7.75;100.00;94594.25;1036802;28;20268;-69
2021/11/01 02:07:59;;;;;;;4.28;3.88;;;;;;;7.75;100.00;94595.03;1039194;28;20271;-69
2021/11/01 02:08:30;;;;;;;4.35;3.95;;;;;;;7.77;100.00;94598.13;1034827;28;20304;-69
2021/11/01 02:09:05;;;;;;;4.28;3.88;;;;;;;7.82;100.00;94594.72;1030721;28;20274;-72
2021/11/01 02:10:01;;;;;;;4.93;3.95;;;;;;;7.86;100.00;94603.56;1035035;28;20107;-70
2021/11/01 02:10:34;;;;;;;4.20;3.80;;;;;;;7.90;100.00;94595.94;1037186;28;20268;-71
2021/11/01 02:11:17;;;;;;;5.15;4.32;;;;;;;7.83;100.00;94590.25;1035133;28;20636;-71
2021/11/01 02:12:02;;;;;;;4.63;3.65;;;;;;;7.82;100.00;94593.94;1032807;28;20268;-72
2021/11/01 02:12:42;;;;;;;9.65;4.15;;;;;;;7.81;100.00;94598.34;1026939;28;20281;-71
2021/11/01 02:13:17;;;;;;;5.05;4.10;;;;;;;7.82;100.00;94592.09;1027523;28;20286;-71
2021/11/01 02:13:50;;;;;;;4.90;4.38;;;;;;;7.80;100.00;94578.53;1037651;28;20107;-72
2021/11/01 02:14:23;;;;;;;5.32;3.70;;;;;;;7.88;100.00;94588.41;1026832;28;20293;-71
2021/11/01 02:14:59;;;;;;;5.80;4.25;;;;;;;7.85;100.00;94585.56;1030974;28;20269;-73
2021/11/01 02:15:37;;;;;;;4.80;3.85;;;;;;;7.88;100.00;94583.19;1028681;28;20277;-71
2021/11/01 02:16:08;;;;;;;4.57;3.88;;;;;;;7.78;100.00;94578.03;1026943;28;20282;-71
2021/11/01 02:16:39;;;;;;;4.88;3.63;;;;;;;7.80;100.00;94575.91;1027011;28;20270;-71
2021/11/01 02:17:09;;;;;;;5.03;4.07;;;;;;;7.73;100.00;94551.94;1030417;28;20037;-69
2021/11/01 02:17:40;;;;;;;5.85;3.95;;;;;;;7.95;100.00;94583.63;1030874;28;20031;-69
2021/11/01 02:18:10;;;;;;;12.00;3.90;;;;;;;7.95;100.00;94588.09;1022999;29;20554;-69
2021/11/01 02:18:41;;;;;;;5.15;3.65;;;;;;;7.92;100.00;94584.19;1029328;28;20058;-69
2021/11/01 02:19:13;;;;;;;4.68;4.13;;;;;;;7.89;100.00;94576.13;1031071;28;20073;-70
2021/11/01 02:19:48;;;;;;;4.47;3.90;;;;;;;7.92;100.00;94581.56;1034908;28;20022;-72
2021/11/01 02:21:03;;;;;;;5.72;4.00;;;;;;;7.93;100.00;94587.56;1030766;28;20273;-70
2021/11/01 02:21:44;;;;;;;4.40;4.00;;;;;;;7.88;100.00;94580.56;1026889;28;20292;-69
2021/11/01 02:22:17;;;;;;;4.10;3.53;;;;;;;7.94;100.00;94581.28;1033765;28;20280;-72
2021/11/01 02:23:19;;;;;;;4.65;3.55;;;;;;;7.92;100.00;94588.63;1038269;28;20175;-71
2021/11/01 02:24:12;;;;;;;5.10;4.03;;;;;;;7.89;100.00;94583.97;1033237;28;20355;-69
2021/11/01 02:25:02;;;;;;;5.85;4.30;;;;;;;7.89;100.00;94586.56;1034062;28;20271;-69
2021/11/01 02:25:43;;;;;;;4.93;4.07;;;;;;;7.82;100.00;94573.81;1036061;28;20311;-70
2021/11/01 02:26:14;;;;;;;4.97;4.00;;;;;;;7.85;100.00;94583.72;1030336;28;20292;-72
2021/11/01 02:26:45;;;;;;;5.40;3.63;;;;;;;7.89;100.00;94581.34;1034788;28;20276;-71
2021/11/01 02:27:16;;;;;;;5.10;4.20;;;;;;;7.88;100.00;94588.41;1023979;28;20711;-71
2021/11/01 02:27:46;;;;;;;7.20;4.53;;;;;;;7.94;100.00;94578.69;1033223;28;20022;-69
2021/11/01 02:28:27;;;;;;;7.28;3.88;;;;;;;7.95;100.00;94582.88;1026820;28;20486;-71
2021/11/01 02:28:57;;;;;;;;;;;;;;;7.97;100.00;94585.97;1033655;28;20056;-69
2021/11/01 02:29:30;;;;;;;;;;;;;;;7.92;100.00;94578.19;1036496;28;19913;-69
2021/11/01 02:30:00;;;;;;;5.00;3.83;;;;;;;7.91;100.00;94579.22;1034809;28;20502;-71
2021/11/01 02:30:31;;;;;;;6.18;3.65;;;;;;;7.90;100.00;94578.44;1030743;28;20269;-69
2021/11/01 02:31:02;;;;;;;5.03;4.18;;;;;;;7.90;100.00;94577.66;1026409;28;20787;-70
2021/11/01 02:31:33;;;;;;;4.93;4.35;;;;;;;7.86;100.00;94579.28;1034783;28;20082;-72
2021/11/01 02:32:04;;;;;;;4.82;3.70;;;;;;;7.82;100.00;94578.28;1026666;28;20297;-72
2021/11/01 02:32:35;;;;;;;4.78;3.88;;;;;;;7.87;100.00;94573.00;1026582;28;20315;-70
2021/11/01 02:33:07;;;;;;;6.20;4.03;;;;;;;7.85;100.00;94575.13;1030891;28;20277;-72
2021/11/01 02:33:37;;;;;;;5.07;4.00;;;;;;;7.83;100.00;94577.22;1034637;28;20269;-72
2021/11/01 02:34:08;;;;;;;4.70;4.30;;;;;;;7.82;100.00;94570.44;1034802;28;20277;-70